createdAt,value
2022-12-25T00:00:03.956Z,920
2022-12-25T00:15:04.781Z,894
2022-12-25T00:30:02.075Z,890
2022-12-25T00:45:04.701Z,891
2022-12-25T01:00:02.997Z,890
2022-12-25T01:15:03.081Z,896
2022-12-25T01:30:05.181Z,902
2022-12-25T02:00:02.956Z,902
2022-12-25T02:15:05.086Z,908
2022-12-25T02:30:04.683Z,913
2022-12-25T02:45:05.955Z,924
2022-12-25T03:00:06.107Z,930
2022-12-25T03:15:03.661Z,931
2022-12-25T03:30:06.111Z,919
2022-12-25T03:45:03.669Z,916
2022-12-25T04:00:04.156Z,901
2022-12-25T04:15:03.072Z,876
2022-12-25T04:30:06.112Z,865
2022-12-25T04:45:02.701Z,852
2022-12-25T05:00:02.755Z,841
2022-12-25T05:15:02.677Z,839
2022-12-25T05:30:05.744Z,834
2022-12-25T05:45:02.842Z,819
2022-12-25T06:00:05.906Z,808
2022-12-25T06:15:06.062Z,798
2022-12-25T06:45:02.260Z,789
2022-12-25T07:00:05.803Z,806
2022-12-25T07:15:03.998Z,835
2022-12-25T07:30:03.870Z,864
2022-12-25T07:45:05.816Z,850
2022-12-25T08:00:01.939Z,822
2022-12-25T08:15:04.188Z,800
2022-12-25T08:30:05.052Z,770
2022-12-25T08:45:01.756Z,752
2022-12-25T09:00:02.947Z,775
2022-12-25T09:15:05.000Z,826
2022-12-25T09:30:01.813Z,879
2022-12-25T09:45:02.101Z,926
2022-12-25T10:00:02.212Z,983
2022-12-25T10:15:01.764Z,1043
2022-12-25T10:30:03.967Z,1109
2022-12-25T10:45:02.942Z,1162
2022-12-25T11:00:05.924Z,1197
2022-12-25T11:15:05.066Z,1200
2022-12-25T11:30:05.864Z,1193
2022-12-25T11:45:05.897Z,1167
2022-12-25T12:00:05.117Z,1171
2022-12-25T12:15:03.839Z,1191
2022-12-25T12:30:04.730Z,1231
2022-12-25T12:45:06.112Z,1274
2022-12-25T13:15:05.904Z,1408
2022-12-25T13:30:04.102Z,1445
2022-12-25T13:45:05.032Z,1447
2022-12-25T14:00:02.853Z,1439
2022-12-25T14:15:04.885Z,1403
2022-12-25T14:30:04.161Z,1363
2022-12-25T14:45:04.069Z,1338
2022-12-25T15:00:05.972Z,1352
2022-12-25T15:15:05.074Z,1372
2022-12-25T15:30:03.814Z,1383
2022-12-25T15:45:04.809Z,1398
2022-12-25T16:00:05.126Z,1405
2022-12-25T16:15:03.852Z,1403
2022-12-25T16:30:03.733Z,1394
2022-12-25T16:45:02.233Z,1393
2022-12-25T17:00:03.888Z,1398
2022-12-25T17:15:02.818Z,1417
2022-12-25T17:45:05.067Z,1503
2022-12-25T18:00:04.180Z,1542
2022-12-25T18:15:05.105Z,1564
2022-12-25T18:30:05.785Z,1588
2022-12-25T18:45:03.858Z,1599
2022-12-25T19:00:01.773Z,1610
2022-12-25T19:15:04.030Z,1619
2022-12-25T19:30:03.913Z,1619
2022-12-25T19:45:05.821Z,1611
2022-12-25T20:00:03.016Z,1615
2022-12-25T20:15:03.120Z,1614
2022-12-25T20:30:02.273Z,1605
2022-12-25T20:45:03.777Z,1615
2022-12-25T21:00:05.706Z,1621
2022-12-25T21:15:03.049Z,1616
2022-12-25T21:30:02.971Z,1613
2022-12-25T21:45:05.010Z,1630
2022-12-25T22:00:02.831Z,1643
2022-12-25T22:15:04.910Z,1649
2022-12-25T22:30:02.168Z,1643
2022-12-25T22:45:03.805Z,1626
2022-12-25T23:00:02.736Z,1595
2022-12-25T23:15:03.739Z,1549
2022-12-25T23:30:05.294Z,1497
2022-12-25T23:45:05.945Z,1439
